sensor_id;sensor_type;location;lat;lon;timestamp;P1;durP1;ratioP1;P2;durP2;ratioP2
15307;SDS011;7755;52.208;6.964;2022-08-21T00:00:44;5.77;;;4.77;;
15307;SDS011;7755;52.208;6.964;2022-08-21T00:04:46;5.87;;;5.17;;
15307;SDS011;7755;52.208;6.964;2022-08-21T00:08:50;6.67;;;6.07;;
15307;SDS011;7755;52.208;6.964;2022-08-21T00:12:52;7.50;;;5.27;;
15307;SDS011;7755;52.208;6.964;2022-08-21T00:16:54;6.77;;;6.00;;
15307;SDS011;7755;52.208;6.964;2022-08-21T00:20:56;6.17;;;5.30;;
15307;SDS011;7755;52.208;6.964;2022-08-21T00:24:59;5.50;;;5.00;;
15307;SDS011;7755;52.208;6.964;2022-08-21T00:29:02;7.53;;;6.60;;
15307;SDS011;7755;52.208;6.964;2022-08-21T00:33:04;6.57;;;5.97;;
15307;SDS011;7755;52.208;6.964;2022-08-21T00:37:07;6.97;;;5.80;;
15307;SDS011;7755;52.208;6.964;2022-08-21T00:41:10;7.17;;;6.47;;
15307;SDS011;7755;52.208;6.964;2022-08-21T00:45:13;6.23;;;5.63;;
15307;SDS011;7755;52.208;6.964;2022-08-21T00:49:15;5.37;;;4.90;;
15307;SDS011;7755;52.208;6.964;2022-08-21T00:53:17;6.50;;;5.47;;
15307;SDS011;7755;52.208;6.964;2022-08-21T00:57:22;7.33;;;6.60;;
15307;SDS011;7755;52.208;6.964;2022-08-21T01:01:27;7.00;;;6.40;;
15307;SDS011;7755;52.208;6.964;2022-08-21T01:05:28;7.43;;;6.53;;
15307;SDS011;7755;52.208;6.964;2022-08-21T01:09:30;6.17;;;5.63;;
15307;SDS011;7755;52.208;6.964;2022-08-21T01:13:34;5.77;;;5.17;;
15307;SDS011;7755;52.208;6.964;2022-08-21T01:17:38;6.90;;;6.30;;
15307;SDS011;7755;52.208;6.964;2022-08-21T01:21:41;6.27;;;5.77;;
15307;SDS011;7755;52.208;6.964;2022-08-21T01:25:43;6.00;;;5.50;;
15307;SDS011;7755;52.208;6.964;2022-08-21T01:29:46;6.37;;;5.80;;
15307;SDS011;7755;52.208;6.964;2022-08-21T01:33:55;6.47;;;5.97;;
15307;SDS011;7755;52.208;6.964;2022-08-21T01:37:59;7.13;;;6.43;;
15307;SDS011;7755;52.208;6.964;2022-08-21T01:42:01;6.70;;;6.10;;
15307;SDS011;7755;52.208;6.964;2022-08-21T01:46:03;7.63;;;6.93;;
15307;SDS011;7755;52.208;6.964;2022-08-21T01:50:05;7.37;;;6.47;;
15307;SDS011;7755;52.208;6.964;2022-08-21T01:54:11;6.93;;;6.33;;
15307;SDS011;7755;52.208;6.964;2022-08-21T01:58:13;6.97;;;6.37;;
15307;SDS011;7755;52.208;6.964;2022-08-21T02:02:15;8.10;;;7.20;;
15307;SDS011;7755;52.208;6.964;2022-08-21T02:06:17;6.70;;;6.13;;
15307;SDS011;7755;52.208;6.964;2022-08-21T02:10:21;6.23;;;5.73;;
15307;SDS011;7755;52.208;6.964;2022-08-21T02:14:26;7.53;;;5.73;;
15307;SDS011;7755;52.208;6.964;2022-08-21T02:18:28;6.90;;;6.30;;
15307;SDS011;7755;52.208;6.964;2022-08-21T02:22:29;6.97;;;6.27;;
15307;SDS011;7755;52.208;6.964;2022-08-21T02:26:32;6.27;;;5.70;;
15307;SDS011;7755;52.208;6.964;2022-08-21T02:30:35;6.20;;;5.70;;
15307;SDS011;7755;52.208;6.964;2022-08-21T02:34:38;6.03;;;5.63;;
15307;SDS011;7755;52.208;6.964;2022-08-21T02:38:40;6.10;;;5.63;;
15307;SDS011;7755;52.208;6.964;2022-08-21T02:42:44;5.83;;;5.33;;
15307;SDS011;7755;52.208;6.964;2022-08-21T02:46:46;6.53;;;5.93;;
15307;SDS011;7755;52.208;6.964;2022-08-21T02:50:50;7.50;;;6.77;;
15307;SDS011;7755;52.208;6.964;2022-08-21T02:54:53;7.83;;;7.13;;
15307;SDS011;7755;52.208;6.964;2022-08-21T02:58:56;7.27;;;6.77;;
15307;SDS011;7755;52.208;6.964;2022-08-21T03:02:58;8.87;;;8.17;;
15307;SDS011;7755;52.208;6.964;2022-08-21T03:07:00;9.20;;;8.43;;
15307;SDS011;7755;52.208;6.964;2022-08-21T03:11:02;9.50;;;8.60;;
15307;SDS011;7755;52.208;6.964;2022-08-21T03:15:07;6.07;;;5.57;;
15307;SDS011;7755;52.208;6.964;2022-08-21T03:19:11;6.53;;;6.03;;
15307;SDS011;7755;52.208;6.964;2022-08-21T03:23:13;7.03;;;6.50;;
15307;SDS011;7755;52.208;6.964;2022-08-21T03:27:18;7.60;;;6.53;;
15307;SDS011;7755;52.208;6.964;2022-08-21T03:31:21;6.70;;;6.10;;
15307;SDS011;7755;52.208;6.964;2022-08-21T03:35:23;6.67;;;6.17;;
15307;SDS011;7755;52.208;6.964;2022-08-21T03:39:25;7.03;;;6.43;;
15307;SDS011;7755;52.208;6.964;2022-08-21T03:43:27;8.00;;;7.30;;
15307;SDS011;7755;52.208;6.964;2022-08-21T03:47:30;6.70;;;6.00;;
15307;SDS011;7755;52.208;6.964;2022-08-21T03:51:32;6.73;;;6.23;;
15307;SDS011;7755;52.208;6.964;2022-08-21T03:55:35;6.50;;;5.87;;
15307;SDS011;7755;52.208;6.964;2022-08-21T03:59:37;6.23;;;5.63;;
15307;SDS011;7755;52.208;6.964;2022-08-21T04:03:41;6.97;;;6.37;;
15307;SDS011;7755;52.208;6.964;2022-08-21T04:07:43;6.33;;;5.77;;
15307;SDS011;7755;52.208;6.964;2022-08-21T04:11:45;7.50;;;6.80;;
15307;SDS011;7755;52.208;6.964;2022-08-21T04:15:47;6.17;;;5.77;;
15307;SDS011;7755;52.208;6.964;2022-08-21T04:19:51;6.73;;;6.23;;
15307;SDS011;7755;52.208;6.964;2022-08-21T04:23:53;6.90;;;6.40;;
15307;SDS011;7755;52.208;6.964;2022-08-21T04:27:55;8.73;;;8.03;;
15307;SDS011;7755;52.208;6.964;2022-08-21T04:31:57;11.23;;;10.23;;
15307;SDS011;7755;52.208;6.964;2022-08-21T04:36:00;10.47;;;9.57;;
15307;SDS011;7755;52.208;6.964;2022-08-21T04:40:03;11.17;;;10.17;;
15307;SDS011;7755;52.208;6.964;2022-08-21T04:44:07;10.07;;;9.27;;
15307;SDS011;7755;52.208;6.964;2022-08-21T04:48:09;11.37;;;10.37;;
15307;SDS011;7755;52.208;6.964;2022-08-21T04:52:17;8.47;;;7.77;;
15307;SDS011;7755;52.208;6.964;2022-08-21T04:56:23;8.80;;;8.03;;
15307;SDS011;7755;52.208;6.964;2022-08-21T05:00:29;10.13;;;8.27;;
15307;SDS011;7755;52.208;6.964;2022-08-21T05:04:32;8.80;;;8.03;;
15307;SDS011;7755;52.208;6.964;2022-08-21T05:08:37;7.47;;;6.87;;
15307;SDS011;7755;52.208;6.964;2022-08-21T05:12:41;7.47;;;6.80;;
15307;SDS011;7755;52.208;6.964;2022-08-21T05:16:44;9.03;;;6.97;;
15307;SDS011;7755;52.208;6.964;2022-08-21T05:20:46;6.70;;;6.20;;
15307;SDS011;7755;52.208;6.964;2022-08-21T05:24:49;8.57;;;7.87;;
15307;SDS011;7755;52.208;6.964;2022-08-21T05:28:50;11.10;;;10.03;;
15307;SDS011;7755;52.208;6.964;2022-08-21T05:32:55;9.67;;;8.77;;
15307;SDS011;7755;52.208;6.964;2022-08-21T05:36:57;11.00;;;9.93;;
15307;SDS011;7755;52.208;6.964;2022-08-21T05:41:00;9.93;;;9.07;;
15307;SDS011;7755;52.208;6.964;2022-08-21T05:45:02;11.37;;;10.20;;
15307;SDS011;7755;52.208;6.964;2022-08-21T05:49:05;11.80;;;10.73;;
15307;SDS011;7755;52.208;6.964;2022-08-21T05:53:07;11.90;;;10.83;;
15307;SDS011;7755;52.208;6.964;2022-08-21T05:57:11;11.40;;;10.23;;
15307;SDS011;7755;52.208;6.964;2022-08-21T06:01:12;13.50;;;12.30;;
15307;SDS011;7755;52.208;6.964;2022-08-21T06:05:14;15.73;;;13.27;;
15307;SDS011;7755;52.208;6.964;2022-08-21T06:09:16;12.80;;;11.73;;
15307;SDS011;7755;52.208;6.964;2022-08-21T06:13:19;14.43;;;13.13;;
15307;SDS011;7755;52.208;6.964;2022-08-21T06:17:22;12.70;;;11.60;;
15307;SDS011;7755;52.208;6.964;2022-08-21T06:21:24;13.43;;;12.13;;
15307;SDS011;7755;52.208;6.964;2022-08-21T06:25:26;13.47;;;12.17;;
15307;SDS011;7755;52.208;6.964;2022-08-21T06:29:30;13.50;;;12.20;;
15307;SDS011;7755;52.208;6.964;2022-08-21T06:33:31;13.77;;;12.47;;
15307;SDS011;7755;52.208;6.964;2022-08-21T06:37:33;13.30;;;12.20;;
15307;SDS011;7755;52.208;6.964;2022-08-21T06:41:35;11.93;;;10.97;;
15307;SDS011;7755;52.208;6.964;2022-08-21T06:45:39;13.13;;;11.77;;
15307;SDS011;7755;52.208;6.964;2022-08-21T06:49:41;11.60;;;10.63;;
15307;SDS011;7755;52.208;6.964;2022-08-21T06:53:42;10.83;;;9.73;;
15307;SDS011;7755;52.208;6.964;2022-08-21T06:57:44;10.13;;;9.13;;
15307;SDS011;7755;52.208;6.964;2022-08-21T07:01:47;9.87;;;8.70;;
15307;SDS011;7755;52.208;6.964;2022-08-21T07:05:49;9.03;;;8.23;;
15307;SDS011;7755;52.208;6.964;2022-08-21T07:09:51;8.67;;;7.97;;
15307;SDS011;7755;52.208;6.964;2022-08-21T07:13:53;9.07;;;6.63;;
15307;SDS011;7755;52.208;6.964;2022-08-21T07:17:58;6.23;;;5.60;;
15307;SDS011;7755;52.208;6.964;2022-08-21T07:22:01;8.10;;;6.13;;
15307;SDS011;7755;52.208;6.964;2022-08-21T07:26:03;6.13;;;5.53;;
15307;SDS011;7755;52.208;6.964;2022-08-21T07:30:06;6.00;;;5.40;;
15307;SDS011;7755;52.208;6.964;2022-08-21T07:34:10;5.83;;;5.27;;
15307;SDS011;7755;52.208;6.964;2022-08-21T07:38:11;7.37;;;5.40;;
15307;SDS011;7755;52.208;6.964;2022-08-21T07:42:13;6.27;;;4.43;;
15307;SDS011;7755;52.208;6.964;2022-08-21T07:46:15;6.30;;;4.40;;
15307;SDS011;7755;52.208;6.964;2022-08-21T07:50:19;5.03;;;4.30;;
15307;SDS011;7755;52.208;6.964;2022-08-21T07:54:21;6.63;;;5.73;;
15307;SDS011;7755;52.208;6.964;2022-08-21T07:58:22;7.23;;;6.10;;
15307;SDS011;7755;52.208;6.964;2022-08-21T08:02:24;8.20;;;7.13;;
15307;SDS011;7755;52.208;6.964;2022-08-21T08:06:29;8.97;;;6.73;;
15307;SDS011;7755;52.208;6.964;2022-08-21T08:10:30;9.80;;;6.87;;
15307;SDS011;7755;52.208;6.964;2022-08-21T08:14:32;9.10;;;6.57;;
15307;SDS011;7755;52.208;6.964;2022-08-21T08:18:34;7.03;;;5.20;;
15307;SDS011;7755;52.208;6.964;2022-08-21T08:22:37;6.97;;;4.67;;
15307;SDS011;7755;52.208;6.964;2022-08-21T08:26:41;6.83;;;4.40;;
15307;SDS011;7755;52.208;6.964;2022-08-21T08:30:43;4.50;;;4.10;;
15307;SDS011;7755;52.208;6.964;2022-08-21T08:34:45;5.03;;;4.20;;
15307;SDS011;7755;52.208;6.964;2022-08-21T08:38:50;6.27;;;5.20;;
15307;SDS011;7755;52.208;6.964;2022-08-21T08:42:51;6.50;;;5.60;;
15307;SDS011;7755;52.208;6.964;2022-08-21T08:46:53;5.47;;;4.87;;
15307;SDS011;7755;52.208;6.964;2022-08-21T08:50:57;7.77;;;4.90;;
15307;SDS011;7755;52.208;6.964;2022-08-21T08:55:06;3.60;;;3.30;;
15307;SDS011;7755;52.208;6.964;2022-08-21T08:59:12;5.07;;;3.97;;
15307;SDS011;7755;52.208;6.964;2022-08-21T09:03:17;4.77;;;3.17;;
15307;SDS011;7755;52.208;6.964;2022-08-21T09:07:28;7.70;;;4.77;;
15307;SDS011;7755;52.208;6.964;2022-08-21T09:11:41;6.63;;;4.47;;
15307;SDS011;7755;52.208;6.964;2022-08-21T09:15:52;6.47;;;5.07;;
15307;SDS011;7755;52.208;6.964;2022-08-21T09:20:02;7.70;;;4.30;;
15307;SDS011;7755;52.208;6.964;2022-08-21T09:24:18;9.10;;;6.27;;
15307;SDS011;7755;52.208;6.964;2022-08-21T09:28:32;6.90;;;5.50;;
15307;SDS011;7755;52.208;6.964;2022-08-21T09:32:36;9.40;;;5.93;;
15307;SDS011;7755;52.208;6.964;2022-08-21T09:36:39;6.93;;;5.17;;
15307;SDS011;7755;52.208;6.964;2022-08-21T09:40:45;7.17;;;5.00;;
15307;SDS011;7755;52.208;6.964;2022-08-21T09:45:00;6.07;;;4.93;;
15307;SDS011;7755;52.208;6.964;2022-08-21T09:49:07;10.13;;;6.13;;
15307;SDS011;7755;52.208;6.964;2022-08-21T09:53:15;5.37;;;4.80;;
15307;SDS011;7755;52.208;6.964;2022-08-21T09:57:19;5.53;;;4.50;;
15307;SDS011;7755;52.208;6.964;2022-08-21T10:01:49;5.20;;;4.07;;
15307;SDS011;7755;52.208;6.964;2022-08-21T10:05:54;5.73;;;4.10;;
15307;SDS011;7755;52.208;6.964;2022-08-21T10:09:59;5.57;;;4.10;;
15307;SDS011;7755;52.208;6.964;2022-08-21T10:14:07;6.13;;;3.73;;
15307;SDS011;7755;52.208;6.964;2022-08-21T10:18:18;6.70;;;4.40;;
15307;SDS011;7755;52.208;6.964;2022-08-21T10:22:29;5.53;;;3.77;;
15307;SDS011;7755;52.208;6.964;2022-08-21T10:26:43;6.10;;;3.90;;
15307;SDS011;7755;52.208;6.964;2022-08-21T10:30:56;4.50;;;2.93;;
15307;SDS011;7755;52.208;6.964;2022-08-21T10:35:05;3.77;;;2.83;;
15307;SDS011;7755;52.208;6.964;2022-08-21T10:39:15;5.00;;;2.80;;
15307;SDS011;7755;52.208;6.964;2022-08-21T10:43:24;4.50;;;2.77;;
15307;SDS011;7755;52.208;6.964;2022-08-21T10:47:35;3.73;;;2.70;;
15307;SDS011;7755;52.208;6.964;2022-08-21T10:51:47;4.10;;;2.90;;
15307;SDS011;7755;52.208;6.964;2022-08-21T10:55:59;2.63;;;2.43;;
15307;SDS011;7755;52.208;6.964;2022-08-21T11:00:07;5.20;;;2.70;;
15307;SDS011;7755;52.208;6.964;2022-08-21T11:04:12;3.63;;;2.40;;
15307;SDS011;7755;52.208;6.964;2022-08-21T11:08:19;5.43;;;2.87;;
15307;SDS011;7755;52.208;6.964;2022-08-21T11:12:26;3.27;;;2.30;;
15307;SDS011;7755;52.208;6.964;2022-08-21T11:16:36;3.58;;;2.25;;
15307;SDS011;7755;52.208;6.964;2022-08-21T11:20:42;3.78;;;2.50;;
15307;SDS011;7755;52.208;6.964;2022-08-21T11:24:52;3.87;;;3.10;;
15307;SDS011;7755;52.208;6.964;2022-08-21T11:29:00;3.03;;;2.80;;
15307;SDS011;7755;52.208;6.964;2022-08-21T11:33:13;3.60;;;3.30;;
15307;SDS011;7755;52.208;6.964;2022-08-21T11:37:32;4.03;;;2.80;;
15307;SDS011;7755;52.208;6.964;2022-08-21T11:41:46;3.22;;;2.55;;
15307;SDS011;7755;52.208;6.964;2022-08-21T11:46:00;5.07;;;2.90;;
15307;SDS011;7755;52.208;6.964;2022-08-21T11:50:16;5.17;;;2.63;;
15307;SDS011;7755;52.208;6.964;2022-08-21T11:54:21;3.33;;;2.90;;
15307;SDS011;7755;52.208;6.964;2022-08-21T11:58:32;4.30;;;2.80;;
15307;SDS011;7755;52.208;6.964;2022-08-21T12:02:38;3.50;;;2.80;;
15307;SDS011;7755;52.208;6.964;2022-08-21T12:06:44;4.40;;;2.90;;
15307;SDS011;7755;52.208;6.964;2022-08-21T12:10:47;5.63;;;3.10;;
15307;SDS011;7755;52.208;6.964;2022-08-21T12:19:30;3.73;;;2.83;;
15307;SDS011;7755;52.208;6.964;2022-08-21T12:23:33;7.33;;;3.10;;
15307;SDS011;7755;52.208;6.964;2022-08-21T12:27:46;2.90;;;2.60;;
15307;SDS011;7755;52.208;6.964;2022-08-21T12:31:53;4.03;;;3.07;;
15307;SDS011;7755;52.208;6.964;2022-08-21T12:36:02;5.30;;;2.80;;
15307;SDS011;7755;52.208;6.964;2022-08-21T12:40:10;5.40;;;2.75;;
15307;SDS011;7755;52.208;6.964;2022-08-21T12:44:15;3.80;;;2.33;;
15307;SDS011;7755;52.208;6.964;2022-08-21T12:48:23;4.15;;;2.70;;
15307;SDS011;7755;52.208;6.964;2022-08-21T12:52:30;3.22;;;2.85;;
15307;SDS011;7755;52.208;6.964;2022-08-21T12:56:36;4.32;;;2.40;;
15307;SDS011;7755;52.208;6.964;2022-08-21T13:00:39;4.80;;;2.60;;
15307;SDS011;7755;52.208;6.964;2022-08-21T13:04:52;4.22;;;2.50;;
15307;SDS011;7755;52.208;6.964;2022-08-21T13:08:56;4.28;;;2.33;;
15307;SDS011;7755;52.208;6.964;2022-08-21T13:13:00;4.10;;;2.35;;
15307;SDS011;7755;52.208;6.964;2022-08-21T13:17:05;2.55;;;2.35;;
15307;SDS011;7755;52.208;6.964;2022-08-21T13:21:11;4.13;;;2.83;;
15307;SDS011;7755;52.208;6.964;2022-08-21T13:25:15;5.47;;;2.80;;
15307;SDS011;7755;52.208;6.964;2022-08-21T13:29:20;6.07;;;2.60;;
15307;SDS011;7755;52.208;6.964;2022-08-21T13:33:24;2.53;;;2.33;;
15307;SDS011;7755;52.208;6.964;2022-08-21T13:37:28;6.38;;;2.67;;
15307;SDS011;7755;52.208;6.964;2022-08-21T13:41:31;3.53;;;2.70;;
15307;SDS011;7755;52.208;6.964;2022-08-21T13:45:35;3.55;;;2.63;;
15307;SDS011;7755;52.208;6.964;2022-08-21T13:49:37;2.93;;;2.20;;
15307;SDS011;7755;52.208;6.964;2022-08-21T13:53:45;2.92;;;2.30;;
15307;SDS011;7755;52.208;6.964;2022-08-21T13:57:58;3.13;;;2.30;;
15307;SDS011;7755;52.208;6.964;2022-08-21T14:02:07;3.35;;;2.25;;
15307;SDS011;7755;52.208;6.964;2022-08-21T14:06:14;4.85;;;2.63;;
15307;SDS011;7755;52.208;6.964;2022-08-21T14:10:21;2.80;;;1.87;;
15307;SDS011;7755;52.208;6.964;2022-08-21T14:14:29;3.22;;;1.90;;
15307;SDS011;7755;52.208;6.964;2022-08-21T14:18:34;4.55;;;2.35;;
15307;SDS011;7755;52.208;6.964;2022-08-21T14:22:45;3.95;;;1.95;;
15307;SDS011;7755;52.208;6.964;2022-08-21T14:26:50;2.47;;;2.17;;
15307;SDS011;7755;52.208;6.964;2022-08-21T14:30:54;3.83;;;2.25;;
15307;SDS011;7755;52.208;6.964;2022-08-21T14:34:57;3.33;;;1.90;;
15307;SDS011;7755;52.208;6.964;2022-08-21T14:38:59;3.17;;;2.17;;
15307;SDS011;7755;52.208;6.964;2022-08-21T14:43:02;3.95;;;2.25;;
15307;SDS011;7755;52.208;6.964;2022-08-21T14:47:03;3.88;;;2.28;;
15307;SDS011;7755;52.208;6.964;2022-08-21T14:51:06;3.42;;;2.42;;
15307;SDS011;7755;52.208;6.964;2022-08-21T14:55:08;2.78;;;2.55;;
15307;SDS011;7755;52.208;6.964;2022-08-21T14:59:15;3.70;;;1.90;;
15307;SDS011;7755;52.208;6.964;2022-08-21T15:03:18;3.78;;;1.83;;
15307;SDS011;7755;52.208;6.964;2022-08-21T15:07:21;2.67;;;2.13;;
15307;SDS011;7755;52.208;6.964;2022-08-21T15:11:23;4.90;;;2.42;;
15307;SDS011;7755;52.208;6.964;2022-08-21T15:15:27;2.67;;;2.28;;
15307;SDS011;7755;52.208;6.964;2022-08-21T15:19:29;3.08;;;2.00;;
15307;SDS011;7755;52.208;6.964;2022-08-21T15:23:31;4.07;;;2.35;;
15307;SDS011;7755;52.208;6.964;2022-08-21T15:27:33;4.90;;;3.15;;
15307;SDS011;7755;52.208;6.964;2022-08-21T15:31:37;2.95;;;2.08;;
15307;SDS011;7755;52.208;6.964;2022-08-21T15:35:52;2.85;;;2.00;;
15307;SDS011;7755;52.208;6.964;2022-08-21T15:39:54;4.07;;;2.15;;
15307;SDS011;7755;52.208;6.964;2022-08-21T15:43:56;2.70;;;2.30;;
15307;SDS011;7755;52.208;6.964;2022-08-21T15:47:59;3.05;;;1.90;;
15307;SDS011;7755;52.208;6.964;2022-08-21T15:52:01;4.20;;;2.28;;
15307;SDS011;7755;52.208;6.964;2022-08-21T15:56:03;2.30;;;1.90;;
15307;SDS011;7755;52.208;6.964;2022-08-21T16:00:08;4.05;;;2.17;;
15307;SDS011;7755;52.208;6.964;2022-08-21T16:04:18;3.40;;;2.00;;
15307;SDS011;7755;52.208;6.964;2022-08-21T16:08:22;4.10;;;2.37;;
15307;SDS011;7755;52.208;6.964;2022-08-21T16:12:24;3.07;;;2.00;;
15307;SDS011;7755;52.208;6.964;2022-08-21T16:16:28;2.73;;;1.80;;
15307;SDS011;7755;52.208;6.964;2022-08-21T16:20:32;2.60;;;2.00;;
15307;SDS011;7755;52.208;6.964;2022-08-21T16:24:34;3.57;;;2.00;;
15307;SDS011;7755;52.208;6.964;2022-08-21T16:28:37;2.97;;;2.13;;
15307;SDS011;7755;52.208;6.964;2022-08-21T16:32:42;3.70;;;2.57;;
15307;SDS011;7755;52.208;6.964;2022-08-21T16:36:47;2.67;;;2.30;;
15307;SDS011;7755;52.208;6.964;2022-08-21T16:40:48;3.33;;;2.70;;
15307;SDS011;7755;52.208;6.964;2022-08-21T16:44:50;2.27;;;2.07;;
15307;SDS011;7755;52.208;6.964;2022-08-21T16:48:52;3.67;;;2.40;;
15307;SDS011;7755;52.208;6.964;2022-08-21T16:52:55;4.20;;;2.30;;
15307;SDS011;7755;52.208;6.964;2022-08-21T16:56:57;3.47;;;2.40;;
15307;SDS011;7755;52.208;6.964;2022-08-21T17:01:00;7.07;;;2.73;;
15307;SDS011;7755;52.208;6.964;2022-08-21T17:05:06;4.03;;;2.53;;
15307;SDS011;7755;52.208;6.964;2022-08-21T17:09:12;3.20;;;2.70;;
15307;SDS011;7755;52.208;6.964;2022-08-21T17:13:14;5.50;;;3.17;;
15307;SDS011;7755;52.208;6.964;2022-08-21T17:17:16;4.47;;;3.40;;
15307;SDS011;7755;52.208;6.964;2022-08-21T17:21:18;6.47;;;4.20;;
15307;SDS011;7755;52.208;6.964;2022-08-21T17:25:22;6.30;;;5.37;;
15307;SDS011;7755;52.208;6.964;2022-08-21T17:29:26;6.03;;;4.47;;
15307;SDS011;7755;52.208;6.964;2022-08-21T17:33:30;4.67;;;4.20;;
15307;SDS011;7755;52.208;6.964;2022-08-21T17:37:37;5.27;;;4.77;;
15307;SDS011;7755;52.208;6.964;2022-08-21T17:41:40;5.60;;;4.57;;
15307;SDS011;7755;52.208;6.964;2022-08-21T17:45:43;7.63;;;4.97;;
15307;SDS011;7755;52.208;6.964;2022-08-21T17:49:49;4.82;;;4.47;;
15307;SDS011;7755;52.208;6.964;2022-08-21T17:53:51;5.40;;;4.53;;
15307;SDS011;7755;52.208;6.964;2022-08-21T17:57:54;5.20;;;4.50;;
15307;SDS011;7755;52.208;6.964;2022-08-21T18:01:57;5.13;;;4.60;;
15307;SDS011;7755;52.208;6.964;2022-08-21T18:06:00;6.77;;;4.47;;
15307;SDS011;7755;52.208;6.964;2022-08-21T18:10:03;4.93;;;4.40;;
15307;SDS011;7755;52.208;6.964;2022-08-21T18:14:09;5.20;;;4.67;;
15307;SDS011;7755;52.208;6.964;2022-08-21T18:18:11;5.40;;;4.70;;
15307;SDS011;7755;52.208;6.964;2022-08-21T18:22:13;6.07;;;4.90;;
15307;SDS011;7755;52.208;6.964;2022-08-21T18:26:17;5.43;;;4.13;;
15307;SDS011;7755;52.208;6.964;2022-08-21T18:30:27;5.10;;;4.03;;
15307;SDS011;7755;52.208;6.964;2022-08-21T18:34:29;4.37;;;3.60;;
15307;SDS011;7755;52.208;6.964;2022-08-21T18:38:34;5.23;;;4.10;;
15307;SDS011;7755;52.208;6.964;2022-08-21T18:42:36;6.03;;;3.80;;
15307;SDS011;7755;52.208;6.964;2022-08-21T18:46:43;6.37;;;3.40;;
15307;SDS011;7755;52.208;6.964;2022-08-21T18:50:49;4.57;;;3.70;;
15307;SDS011;7755;52.208;6.964;2022-08-21T18:54:51;5.87;;;3.60;;
15307;SDS011;7755;52.208;6.964;2022-08-21T18:58:53;3.50;;;3.20;;
15307;SDS011;7755;52.208;6.964;2022-08-21T19:02:59;6.13;;;3.30;;
15307;SDS011;7755;52.208;6.964;2022-08-21T19:07:01;4.60;;;3.40;;
15307;SDS011;7755;52.208;6.964;2022-08-21T19:11:03;4.50;;;3.40;;
15307;SDS011;7755;52.208;6.964;2022-08-21T19:15:06;5.80;;;4.10;;
15307;SDS011;7755;52.208;6.964;2022-08-21T19:19:12;6.60;;;4.10;;
15307;SDS011;7755;52.208;6.964;2022-08-21T19:23:17;5.83;;;3.87;;
15307;SDS011;7755;52.208;6.964;2022-08-21T19:27:19;4.97;;;3.43;;
15307;SDS011;7755;52.208;6.964;2022-08-21T19:31:22;3.93;;;2.87;;
15307;SDS011;7755;52.208;6.964;2022-08-21T19:35:27;3.73;;;3.27;;
15307;SDS011;7755;52.208;6.964;2022-08-21T19:39:29;3.83;;;3.50;;
15307;SDS011;7755;52.208;6.964;2022-08-21T19:43:38;3.97;;;3.50;;
15307;SDS011;7755;52.208;6.964;2022-08-21T19:47:43;4.50;;;2.97;;
15307;SDS011;7755;52.208;6.964;2022-08-21T19:51:48;3.93;;;3.00;;
15307;SDS011;7755;52.208;6.964;2022-08-21T19:55:50;4.80;;;3.80;;
15307;SDS011;7755;52.208;6.964;2022-08-21T19:59:52;4.00;;;3.07;;
15307;SDS011;7755;52.208;6.964;2022-08-21T20:03:54;5.33;;;4.27;;
15307;SDS011;7755;52.208;6.964;2022-08-21T20:07:57;4.80;;;4.00;;
15307;SDS011;7755;52.208;6.964;2022-08-21T20:12:02;5.20;;;3.50;;
15307;SDS011;7755;52.208;6.964;2022-08-21T20:16:07;3.93;;;3.53;;
15307;SDS011;7755;52.208;6.964;2022-08-21T20:20:12;4.63;;;3.20;;
15307;SDS011;7755;52.208;6.964;2022-08-21T20:24:15;5.00;;;3.30;;
15307;SDS011;7755;52.208;6.964;2022-08-21T20:28:17;5.20;;;2.97;;
15307;SDS011;7755;52.208;6.964;2022-08-21T20:32:19;3.57;;;3.27;;
15307;SDS011;7755;52.208;6.964;2022-08-21T20:36:21;2.93;;;2.67;;
15307;SDS011;7755;52.208;6.964;2022-08-21T20:40:25;4.20;;;3.40;;
15307;SDS011;7755;52.208;6.964;2022-08-21T20:44:28;3.70;;;3.17;;
15307;SDS011;7755;52.208;6.964;2022-08-21T20:48:33;7.17;;;3.43;;
15307;SDS011;7755;52.208;6.964;2022-08-21T20:52:37;5.47;;;3.60;;
15307;SDS011;7755;52.208;6.964;2022-08-21T20:56:42;12.90;;;3.73;;
15307;SDS011;7755;52.208;6.964;2022-08-21T21:00:48;4.33;;;3.17;;
15307;SDS011;7755;52.208;6.964;2022-08-21T21:04:53;4.30;;;3.57;;
15307;SDS011;7755;52.208;6.964;2022-08-21T21:09:03;5.97;;;3.70;;
15307;SDS011;7755;52.208;6.964;2022-08-21T21:13:12;4.90;;;2.93;;
15307;SDS011;7755;52.208;6.964;2022-08-21T21:17:19;3.80;;;3.30;;
15307;SDS011;7755;52.208;6.964;2022-08-21T21:21:28;3.70;;;3.30;;
15307;SDS011;7755;52.208;6.964;2022-08-21T21:25:33;4.60;;;3.47;;
15307;SDS011;7755;52.208;6.964;2022-08-21T21:29:41;5.87;;;3.50;;
15307;SDS011;7755;52.208;6.964;2022-08-21T21:33:49;3.83;;;3.40;;
15307;SDS011;7755;52.208;6.964;2022-08-21T21:37:51;4.30;;;3.90;;
15307;SDS011;7755;52.208;6.964;2022-08-21T21:42:02;5.10;;;4.20;;
15307;SDS011;7755;52.208;6.964;2022-08-21T21:46:20;6.43;;;3.50;;
15307;SDS011;7755;52.208;6.964;2022-08-21T21:50:34;4.23;;;3.47;;
15307;SDS011;7755;52.208;6.964;2022-08-21T21:54:49;5.37;;;3.70;;
15307;SDS011;7755;52.208;6.964;2022-08-21T21:59:17;4.13;;;3.73;;
15307;SDS011;7755;52.208;6.964;2022-08-21T22:03:26;4.97;;;3.90;;
15307;SDS011;7755;52.208;6.964;2022-08-21T22:07:35;6.53;;;3.87;;
15307;SDS011;7755;52.208;6.964;2022-08-21T22:11:45;5.00;;;3.83;;
15307;SDS011;7755;52.208;6.964;2022-08-21T22:15:55;3.90;;;3.47;;
15307;SDS011;7755;52.208;6.964;2022-08-21T22:19:59;4.63;;;3.60;;
15307;SDS011;7755;52.208;6.964;2022-08-21T22:24:12;7.97;;;4.07;;
15307;SDS011;7755;52.208;6.964;2022-08-21T22:28:17;5.43;;;4.00;;
15307;SDS011;7755;52.208;6.964;2022-08-21T22:32:23;3.87;;;3.57;;
15307;SDS011;7755;52.208;6.964;2022-08-21T22:36:29;7.27;;;5.03;;
15307;SDS011;7755;52.208;6.964;2022-08-21T22:40:33;8.50;;;5.50;;
15307;SDS011;7755;52.208;6.964;2022-08-21T22:44:45;7.20;;;5.63;;
15307;SDS011;7755;52.208;6.964;2022-08-21T22:48:50;5.17;;;4.67;;
15307;SDS011;7755;52.208;6.964;2022-08-21T22:52:56;4.80;;;4.07;;
15307;SDS011;7755;52.208;6.964;2022-08-21T22:57:04;4.20;;;3.40;;
15307;SDS011;7755;52.208;6.964;2022-08-21T23:01:11;6.07;;;3.77;;
15307;SDS011;7755;52.208;6.964;2022-08-21T23:05:33;7.43;;;4.00;;
15307;SDS011;7755;52.208;6.964;2022-08-21T23:09:44;6.60;;;4.17;;
15307;SDS011;7755;52.208;6.964;2022-08-21T23:13:47;4.57;;;3.53;;
15307;SDS011;7755;52.208;6.964;2022-08-21T23:17:53;4.83;;;4.07;;
15307;SDS011;7755;52.208;6.964;2022-08-21T23:22:07;5.47;;;3.73;;
15307;SDS011;7755;52.208;6.964;2022-08-21T23:26:25;7.47;;;4.20;;
15307;SDS011;7755;52.208;6.964;2022-08-21T23:30:36;5.27;;;4.10;;
15307;SDS011;7755;52.208;6.964;2022-08-21T23:34:44;5.40;;;3.93;;
15307;SDS011;7755;52.208;6.964;2022-08-21T23:39:03;5.43;;;3.70;;
15307;SDS011;7755;52.208;6.964;2022-08-21T23:43:19;4.27;;;3.87;;
15307;SDS011;7755;52.208;6.964;2022-08-21T23:47:33;5.77;;;3.80;;
15307;SDS011;7755;52.208;6.964;2022-08-21T23:51:46;4.57;;;3.73;;
15307;SDS011;7755;52.208;6.964;2022-08-21T23:55:59;6.33;;;4.47;;
